createdAt,value
2022-10-19T00:01:11.855Z,100.00
2022-10-19T00:03:39.982Z,100.00
2022-10-19T00:06:19.418Z,100.00
2022-10-19T00:08:46.877Z,100.00
2022-10-19T00:11:14.159Z,100.00
2022-10-19T00:13:41.577Z,100.00
2022-10-19T00:16:11.865Z,100.00
2022-10-19T00:18:40.276Z,100.00
2022-10-19T00:21:09.228Z,100.00
2022-10-19T00:23:36.927Z,100.00
2022-10-19T00:26:04.171Z,100.00
2022-10-19T00:28:32.205Z,100.00
2022-10-19T00:31:04.367Z,100.00
2022-10-19T00:33:31.879Z,100.00
2022-10-19T00:35:59.026Z,100.00
2022-10-19T00:38:26.500Z,100.00
2022-10-19T00:40:54.159Z,100.00
2022-10-19T00:43:24.609Z,100.00
2022-10-19T00:45:52.328Z,100.00
2022-10-19T00:48:26.197Z,100.00
2022-10-19T00:50:54.861Z,100.00
2022-10-19T00:53:22.498Z,100.00
2022-10-19T00:55:49.962Z,100.00
2022-10-19T00:58:17.305Z,100.00
2022-10-19T01:00:44.864Z,100.00
2022-10-19T01:03:13.141Z,100.00
2022-10-19T01:05:41.281Z,100.00
2022-10-19T01:08:09.665Z,100.00
2022-10-19T01:10:42.978Z,100.00
2022-10-19T01:13:29.578Z,100.00
2022-10-19T01:16:33.298Z,100.00
2022-10-19T01:19:19.098Z,100.00
2022-10-19T01:22:26.378Z,100.00
2022-10-19T01:25:02.614Z,100.00
2022-10-19T01:27:54.026Z,100.00
2022-10-19T01:30:21.180Z,100.00
2022-10-19T01:32:57.654Z,100.00
2022-10-19T01:35:41.005Z,100.00
2022-10-19T01:38:19.218Z,100.00
2022-10-19T01:40:56.676Z,100.00
2022-10-19T01:43:56.193Z,100.00
2022-10-19T01:46:45.998Z,100.00
2022-10-19T01:49:27.454Z,100.00
2022-10-19T01:52:04.878Z,100.00
2022-10-19T01:54:37.749Z,100.00
2022-10-19T01:57:08.078Z,100.00
2022-10-19T01:59:36.038Z,100.00
2022-10-19T02:02:06.754Z,100.00
2022-10-19T02:04:34.737Z,100.00
2022-10-19T02:07:02.792Z,100.00
2022-10-19T02:09:30.080Z,100.00
2022-10-19T02:11:59.255Z,100.00
2022-10-19T02:14:31.767Z,100.00
2022-10-19T02:17:11.257Z,100.00
2022-10-19T02:19:39.128Z,100.00
2022-10-19T02:22:07.021Z,100.00
2022-10-19T02:24:34.343Z,100.00
2022-10-19T02:27:04.983Z,100.00
2022-10-19T02:29:33.653Z,100.00
2022-10-19T02:32:01.831Z,100.00
2022-10-19T02:34:29.318Z,100.00
2022-10-19T02:36:56.758Z,100.00
2022-10-19T02:39:24.102Z,100.00
2022-10-19T02:42:36.845Z,100.00
2022-10-19T02:45:10.142Z,100.00
2022-10-19T02:47:41.644Z,100.00
2022-10-19T02:50:10.083Z,100.00
2022-10-19T02:52:38.739Z,100.00
2022-10-19T02:55:06.892Z,100.00
2022-10-19T02:57:34.421Z,100.00
2022-10-19T03:00:02.758Z,100.00
2022-10-19T03:02:30.193Z,100.00
2022-10-19T03:04:57.576Z,100.00
2022-10-19T03:07:25.210Z,100.00
2022-10-19T03:09:52.775Z,100.00
2022-10-19T03:12:19.921Z,100.00
2022-10-19T03:14:47.184Z,100.00
2022-10-19T03:17:14.525Z,100.00
2022-10-19T03:19:41.899Z,100.00
2022-10-19T03:22:09.030Z,100.00
2022-10-19T03:24:36.519Z,100.00
2022-10-19T03:27:03.950Z,100.00
2022-10-19T03:29:31.518Z,100.00
2022-10-19T03:31:58.975Z,100.00
2022-10-19T03:34:26.235Z,100.00
2022-10-19T03:36:53.778Z,100.00
2022-10-19T03:39:21.225Z,100.00
2022-10-19T03:41:49.039Z,100.00
2022-10-19T03:44:16.556Z,100.00
2022-10-19T03:46:44.004Z,100.00
2022-10-19T03:49:12.415Z,100.00
2022-10-19T03:51:39.883Z,100.00
2022-10-19T03:54:09.557Z,100.00
2022-10-19T03:56:37.135Z,100.00
2022-10-19T03:59:06.151Z,100.00
2022-10-19T04:01:37.875Z,100.00
2022-10-19T04:04:07.672Z,100.00
2022-10-19T04:06:36.973Z,100.00
2022-10-19T04:09:05.562Z,100.00
2022-10-19T04:11:34.588Z,100.00
2022-10-19T04:14:02.270Z,100.00
2022-10-19T04:16:32.650Z,100.00
2022-10-19T04:18:59.998Z,100.00
2022-10-19T04:21:29.970Z,100.00
2022-10-19T04:24:02.411Z,100.00
2022-10-19T04:26:31.075Z,100.00
2022-10-19T04:28:59.617Z,100.00
2022-10-19T04:31:28.036Z,100.00
2022-10-19T04:33:56.138Z,100.00
2022-10-19T04:36:23.875Z,100.00
2022-10-19T04:38:51.339Z,100.00
2022-10-19T04:41:20.517Z,100.00
2022-10-19T04:43:49.016Z,100.00
2022-10-19T04:46:18.544Z,100.00
2022-10-19T04:48:47.572Z,100.00
2022-10-19T04:51:15.664Z,100.00
2022-10-19T04:53:44.087Z,100.00
2022-10-19T04:56:20.377Z,100.00
2022-10-19T04:58:48.374Z,100.00
2022-10-19T05:01:21.169Z,100.00
2022-10-19T05:03:49.509Z,100.00
2022-10-19T05:06:16.785Z,100.00
2022-10-19T05:08:43.949Z,100.00
2022-10-19T05:11:14.442Z,100.00
2022-10-19T05:13:42.863Z,100.00
2022-10-19T05:16:13.657Z,100.00
2022-10-19T05:18:41.755Z,100.00
2022-10-19T05:21:11.442Z,100.00
2022-10-19T05:23:39.667Z,100.00
2022-10-19T05:26:16.928Z,100.00
2022-10-19T05:28:48.390Z,100.00
2022-10-19T05:31:18.517Z,100.00
2022-10-19T05:33:47.171Z,100.00
2022-10-19T05:36:17.952Z,100.00
2022-10-19T05:38:46.914Z,100.00
2022-10-19T05:41:14.676Z,100.00
2022-10-19T05:43:42.858Z,100.00
2022-10-19T05:46:12.773Z,99.72
2022-10-19T05:48:40.850Z,99.54
2022-10-19T05:51:11.951Z,99.24
2022-10-19T05:56:08.439Z,98.56
2022-10-19T05:58:36.299Z,98.36
2022-10-19T06:01:04.578Z,98.55
2022-10-19T06:03:32.129Z,98.69
2022-10-19T06:06:06.375Z,98.49
2022-10-19T06:08:34.585Z,98.12
2022-10-19T06:11:13.480Z,97.85
2022-10-19T06:13:42.737Z,97.72
2022-10-19T06:16:12.150Z,97.69
2022-10-19T06:18:40.331Z,97.40
2022-10-19T06:21:12.284Z,97.05
2022-10-19T06:23:39.641Z,97.03
2022-10-19T06:26:11.078Z,97.09
2022-10-19T06:28:39.675Z,97.00
2022-10-19T06:31:09.201Z,96.85
2022-10-19T06:33:37.716Z,96.61
2022-10-19T06:36:13.429Z,96.37
2022-10-19T06:38:41.567Z,96.48
2022-10-19T06:41:09.825Z,96.07
2022-10-19T06:43:37.078Z,96.06
2022-10-19T06:46:09.954Z,96.06
2022-10-19T06:48:37.659Z,95.83
2022-10-19T06:51:08.072Z,95.51
2022-10-19T06:53:36.453Z,95.40
2022-10-19T06:56:06.107Z,95.59
2022-10-19T06:58:37.927Z,95.41
2022-10-19T07:01:08.097Z,95.27
2022-10-19T07:03:35.942Z,94.96
2022-10-19T07:06:06.176Z,94.70
2022-10-19T07:08:36.158Z,94.45
2022-10-19T07:11:06.867Z,93.13
2022-10-19T07:13:34.843Z,93.47
2022-10-19T07:16:07.173Z,93.48
2022-10-19T07:18:36.438Z,93.11
2022-10-19T07:21:06.938Z,93.36
2022-10-19T07:23:35.536Z,93.20
2022-10-19T07:26:15.200Z,92.80
2022-10-19T07:28:44.727Z,92.40
2022-10-19T07:31:14.144Z,92.64
2022-10-19T07:33:42.270Z,91.74
2022-10-19T07:36:11.569Z,91.51
2022-10-19T07:38:39.020Z,90.74
2022-10-19T07:41:07.564Z,90.72
2022-10-19T07:43:35.999Z,91.11
2022-10-19T07:46:09.166Z,90.80
2022-10-19T07:48:36.923Z,90.82
2022-10-19T07:51:07.825Z,90.15
2022-10-19T07:53:35.966Z,90.02
2022-10-19T07:56:07.790Z,90.51
2022-10-19T07:58:36.699Z,89.78
2022-10-19T08:01:16.317Z,89.53
2022-10-19T08:06:32.443Z,88.13
2022-10-19T08:09:00.198Z,88.33
2022-10-19T08:11:31.185Z,87.52
2022-10-19T08:14:03.308Z,87.12
2022-10-19T08:16:42.540Z,87.53
2022-10-19T08:19:12.241Z,87.31
2022-10-19T08:21:42.173Z,85.88
2022-10-19T08:24:10.546Z,86.14
2022-10-19T08:26:39.456Z,86.53
2022-10-19T08:29:14.770Z,85.98
2022-10-19T08:31:43.523Z,84.70
2022-10-19T08:34:11.748Z,86.02
2022-10-19T08:36:39.238Z,85.58
2022-10-19T08:39:09.098Z,85.08
2022-10-19T08:42:05.368Z,84.97
2022-10-19T08:44:35.977Z,84.40
2022-10-19T08:47:39.173Z,84.42
2022-10-19T08:50:23.938Z,84.98
2022-10-19T08:53:42.488Z,83.29
2022-10-19T08:56:12.374Z,83.24
2022-10-19T08:58:58.010Z,82.60
2022-10-19T09:01:37.923Z,83.34
2022-10-19T09:04:08.250Z,83.75
2022-10-19T09:06:45.544Z,82.28
2022-10-19T09:09:19.669Z,82.27
2022-10-19T09:11:49.980Z,82.39
2022-10-19T09:14:20.300Z,82.00
2022-10-19T09:16:49.705Z,81.16
2022-10-19T09:19:26.420Z,80.80
2022-10-19T09:21:58.223Z,80.20
2022-10-19T09:24:51.596Z,81.06
2022-10-19T09:27:47.019Z,80.89
2022-10-19T09:30:19.442Z,81.39
2022-10-19T09:32:48.233Z,80.01
2022-10-19T09:35:22.231Z,79.37
2022-10-19T09:37:50.353Z,78.08
2022-10-19T09:40:24.068Z,78.43
2022-10-19T09:42:57.434Z,78.75
2022-10-19T09:45:43.851Z,78.00
2022-10-19T09:48:34.251Z,78.16
2022-10-19T09:51:03.403Z,77.87
2022-10-19T09:53:34.322Z,78.16
2022-10-19T09:56:08.030Z,78.73
2022-10-19T09:58:36.351Z,77.40
2022-10-19T10:01:04.215Z,77.44
2022-10-19T10:03:39.837Z,77.41
2022-10-19T10:06:15.884Z,76.87
2022-10-19T10:08:58.166Z,76.62
2022-10-19T10:11:29.907Z,76.78
2022-10-19T10:14:02.256Z,76.24
2022-10-19T10:16:34.221Z,76.06
2022-10-19T10:19:04.560Z,75.63
2022-10-19T10:21:35.980Z,75.25
2022-10-19T10:24:14.466Z,75.46
2022-10-19T10:26:55.094Z,76.32
2022-10-19T10:29:31.472Z,76.50
2022-10-19T10:32:18.977Z,75.65
2022-10-19T10:35:01.004Z,74.92
2022-10-19T10:37:37.721Z,74.84
2022-10-19T10:40:06.645Z,74.39
2022-10-19T10:42:54.150Z,74.87
2022-10-19T10:45:31.680Z,75.51
2022-10-19T10:48:21.346Z,75.68
2022-10-19T10:50:49.197Z,73.02
2022-10-19T10:53:33.765Z,72.41
2022-10-19T10:56:02.555Z,73.06
2022-10-19T10:58:37.952Z,73.72
2022-10-19T11:01:08.839Z,72.76
2022-10-19T11:03:36.790Z,72.99
2022-10-19T11:06:04.249Z,72.40
2022-10-19T11:09:08.134Z,72.62
2022-10-19T11:11:39.503Z,71.27
2022-10-19T11:14:37.009Z,71.00
2022-10-19T11:17:07.697Z,72.22
2022-10-19T11:19:42.667Z,72.73
2022-10-19T11:22:13.498Z,72.45
2022-10-19T11:24:46.398Z,71.31
2022-10-19T11:27:28.143Z,70.86
2022-10-19T11:30:20.238Z,71.54
2022-10-19T11:32:47.528Z,71.46
2022-10-19T11:35:45.810Z,71.37
2022-10-19T11:38:34.885Z,69.26
2022-10-19T11:42:00.498Z,67.28
2022-10-19T11:44:33.378Z,66.76
2022-10-19T11:47:18.975Z,67.93
2022-10-19T11:50:11.243Z,68.37
2022-10-19T11:53:08.258Z,69.51
2022-10-19T11:55:42.677Z,70.36
2022-10-19T11:58:49.112Z,69.83
2022-10-19T12:01:29.186Z,70.75
2022-10-19T12:04:14.783Z,70.99
2022-10-19T12:06:51.456Z,70.82
2022-10-19T12:09:53.664Z,70.62
2022-10-19T12:12:43.515Z,71.27
2022-10-19T12:15:11.797Z,70.75
2022-10-19T12:17:41.303Z,71.34
2022-10-19T12:20:40.195Z,71.45
2022-10-19T12:23:31.757Z,71.10
2022-10-19T12:26:06.798Z,71.12
2022-10-19T12:28:37.744Z,71.72
2022-10-19T12:31:06.148Z,72.07
2022-10-19T12:33:48.044Z,72.00
2022-10-19T12:36:34.011Z,71.17
2022-10-19T12:39:29.816Z,72.35
2022-10-19T12:42:12.479Z,72.07
2022-10-19T12:45:09.139Z,72.73
2022-10-19T12:47:38.315Z,73.03
2022-10-19T12:50:06.212Z,73.48
2022-10-19T12:52:43.183Z,73.93
2022-10-19T12:55:29.256Z,74.39
2022-10-19T12:58:02.749Z,74.57
2022-10-19T13:00:34.666Z,74.91
2022-10-19T13:03:15.935Z,75.58
2022-10-19T13:05:43.725Z,76.01
2022-10-19T13:08:27.394Z,75.93
2022-10-19T13:11:17.420Z,75.78
2022-10-19T13:14:28.758Z,75.92
2022-10-19T13:17:03.697Z,76.12
2022-10-19T13:19:31.475Z,76.29
2022-10-19T13:22:02.155Z,76.08
2022-10-19T13:24:37.514Z,76.55
2022-10-19T13:27:06.148Z,77.23
2022-10-19T13:29:39.790Z,77.50
2022-10-19T13:32:33.383Z,77.16
2022-10-19T13:35:36.726Z,77.24
2022-10-19T13:38:12.086Z,77.43
2022-10-19T13:40:48.260Z,77.53
2022-10-19T13:43:22.724Z,77.22
2022-10-19T13:46:02.178Z,77.22
2022-10-19T13:48:51.007Z,77.50
2022-10-19T13:51:40.114Z,77.08
2022-10-19T13:54:38.037Z,77.40
2022-10-19T13:57:24.956Z,77.52
2022-10-19T13:59:52.658Z,77.85
2022-10-19T14:02:26.771Z,77.71
2022-10-19T14:04:57.168Z,78.03
2022-10-19T14:07:32.932Z,78.29
2022-10-19T14:10:08.276Z,78.55
2022-10-19T14:12:38.661Z,78.78
2022-10-19T14:15:31.166Z,78.84
2022-10-19T14:18:02.377Z,78.85
2022-10-19T14:20:35.169Z,78.69
2022-10-19T14:23:24.368Z,79.10
2022-10-19T14:25:54.069Z,79.39
2022-10-19T14:28:21.938Z,79.59
2022-10-19T14:31:07.492Z,79.70
2022-10-19T14:33:38.502Z,80.05
2022-10-19T14:36:17.137Z,80.30
2022-10-19T14:38:44.703Z,80.22
2022-10-19T14:44:30.950Z,80.36
2022-10-19T14:47:01.646Z,80.64
2022-10-19T14:49:29.217Z,80.77
2022-10-19T14:52:00.052Z,80.85
2022-10-19T14:54:40.964Z,80.35
2022-10-19T14:57:19.520Z,80.43
2022-10-19T14:59:59.040Z,80.79
2022-10-19T15:02:31.328Z,80.90
2022-10-19T15:05:02.720Z,80.96
2022-10-19T15:07:41.392Z,80.82
2022-10-19T15:10:29.338Z,80.92
2022-10-19T15:13:04.709Z,81.03
2022-10-19T15:15:34.082Z,81.06
2022-10-19T15:18:01.599Z,81.07
2022-10-19T15:20:44.050Z,80.96
2022-10-19T15:23:45.400Z,80.88
2022-10-19T15:26:25.779Z,80.77
2022-10-19T15:28:55.856Z,80.91
2022-10-19T15:31:28.711Z,80.90
2022-10-19T15:33:59.776Z,80.74
2022-10-19T15:36:29.589Z,80.96
2022-10-19T15:39:25.045Z,81.05
2022-10-19T15:41:55.478Z,81.21
2022-10-19T15:44:41.546Z,81.31
2022-10-19T15:47:19.865Z,81.54
2022-10-19T15:50:01.883Z,81.71
2022-10-19T15:52:34.461Z,81.93
2022-10-19T15:55:02.625Z,81.95
2022-10-19T15:57:39.926Z,82.19
2022-10-19T16:00:14.477Z,82.43
2022-10-19T16:02:42.187Z,82.41
2022-10-19T16:05:10.278Z,82.48
2022-10-19T16:07:39.890Z,82.57
2022-10-19T16:10:08.635Z,82.78
2022-10-19T16:12:36.417Z,82.96
2022-10-19T16:15:05.083Z,83.00
2022-10-19T16:17:33.349Z,83.11
2022-10-19T16:20:01.741Z,83.20
2022-10-19T16:22:29.650Z,83.19
2022-10-19T16:24:57.684Z,83.44
2022-10-19T19:43:14.710Z,86.15
2022-10-19T19:47:53.074Z,86.63
2022-10-19T19:50:24.257Z,87.18
2022-10-19T19:52:53.716Z,87.51
2022-10-19T19:55:21.046Z,87.78
2022-10-19T19:57:51.290Z,88.19
2022-10-19T20:00:19.993Z,88.60
2022-10-19T20:02:54.857Z,89.28
2022-10-19T20:05:23.289Z,89.56
2022-10-19T20:07:51.470Z,90.03
2022-10-19T20:10:20.092Z,90.20
2022-10-19T20:12:49.700Z,90.65
2022-10-19T20:15:19.569Z,91.10
2022-10-19T20:17:47.962Z,91.27
2022-10-19T20:20:19.114Z,91.60
2022-10-19T20:22:48.496Z,92.03
2022-10-19T20:25:16.909Z,92.06
2022-10-19T20:27:44.648Z,92.42
2022-10-19T20:30:14.245Z,92.57
2022-10-19T20:32:42.615Z,92.79
2022-10-19T20:35:10.491Z,92.88
2022-10-19T20:37:37.826Z,92.85
2022-10-19T20:40:08.716Z,92.85
2022-10-19T20:42:37.837Z,92.92
2022-10-19T20:45:06.834Z,93.14
2022-10-19T20:47:34.911Z,92.95
2022-10-19T20:52:33.281Z,93.18
2022-10-19T20:55:01.006Z,93.33
2022-10-19T20:57:33.894Z,93.04
2022-10-19T21:00:06.755Z,93.03
2022-10-19T21:02:34.882Z,93.27
2022-10-19T21:05:04.056Z,93.47
2022-10-19T21:07:31.487Z,93.57
2022-10-19T21:09:58.948Z,93.67
2022-10-19T21:12:27.288Z,93.74
2022-10-19T21:14:54.979Z,93.67
2022-10-19T21:17:22.570Z,93.38
2022-10-19T21:19:50.102Z,93.27
2022-10-19T21:22:17.470Z,93.41
2022-10-19T21:24:45.330Z,93.21
2022-10-19T21:27:14.001Z,93.36
2022-10-19T21:29:41.490Z,93.35
2022-10-19T21:32:09.851Z,93.11
2022-10-19T21:34:37.377Z,92.56
2022-10-19T21:37:05.690Z,92.71
2022-10-19T21:39:33.477Z,92.32
2022-10-19T21:42:01.013Z,92.66
2022-10-19T21:44:28.405Z,92.88
2022-10-19T21:46:55.617Z,92.39
2022-10-19T21:49:22.922Z,92.27
2022-10-19T21:51:52.538Z,92.18
2022-10-19T21:54:29.492Z,92.37
2022-10-19T21:56:59.047Z,92.37
2022-10-19T21:59:26.542Z,92.37
2022-10-19T22:01:56.948Z,92.23
2022-10-19T22:07:22.233Z,92.34
2022-10-19T22:09:49.523Z,92.22
2022-10-19T22:12:18.020Z,92.11
2022-10-19T22:14:47.096Z,91.96
2022-10-19T22:17:16.311Z,92.23
2022-10-19T22:19:44.272Z,92.37
2022-10-19T22:22:11.828Z,92.39
2022-10-19T22:24:39.478Z,92.24
2022-10-19T22:27:06.931Z,92.24
2022-10-19T22:29:34.286Z,92.04
2022-10-19T22:32:01.859Z,92.38
2022-10-19T22:34:29.319Z,92.75
2022-10-19T22:36:56.818Z,92.90
2022-10-19T22:39:26.991Z,93.29
2022-10-19T22:42:04.752Z,93.61
2022-10-19T22:44:32.622Z,93.63
2022-10-19T22:47:00.096Z,93.70
2022-10-19T22:49:30.453Z,93.97
2022-10-19T22:51:57.574Z,93.83
2022-10-19T22:54:25.149Z,93.62
2022-10-19T22:56:53.928Z,93.18
2022-10-19T22:59:21.273Z,93.03
2022-10-19T23:01:48.492Z,92.77
2022-10-19T23:04:16.090Z,92.87
2022-10-19T23:06:43.450Z,92.62
2022-10-19T23:09:11.030Z,92.44
2022-10-19T23:11:38.370Z,92.25
2022-10-19T23:14:05.611Z,92.83
2022-10-19T23:16:32.872Z,93.07
2022-10-19T23:19:00.428Z,93.05
2022-10-19T23:21:28.290Z,93.05
2022-10-19T23:23:55.641Z,93.17
2022-10-19T23:26:24.122Z,92.81
2022-10-19T23:28:51.890Z,92.99
2022-10-19T23:31:27.032Z,92.96
2022-10-19T23:33:55.233Z,93.06
2022-10-19T23:36:27.610Z,93.17
2022-10-19T23:38:55.890Z,93.34
2022-10-19T23:41:24.143Z,93.36
2022-10-19T23:43:51.894Z,93.66
2022-10-19T23:46:19.071Z,93.74
2022-10-19T23:48:47.750Z,93.73
2022-10-19T23:51:17.331Z,93.71
2022-10-19T23:53:46.193Z,93.48
2022-10-19T23:56:16.770Z,93.42
2022-10-19T23:58:44.674Z,93.36
